createdAt,value
2022-08-24T00:00:25.706Z,99343.84
2022-08-24T00:03:34.430Z,99344.19
2022-08-24T00:06:23.686Z,99347.84
2022-08-24T00:09:11.726Z,99344.81
2022-08-24T00:11:59.966Z,99338.69
2022-08-24T00:14:48.111Z,99344.81
2022-08-24T00:17:37.378Z,99341.38
2022-08-24T00:20:26.039Z,99346.41
2022-08-24T00:23:13.975Z,99351.50
2022-08-24T00:26:02.229Z,99346.31
2022-08-24T00:28:50.051Z,99346.25
2022-08-24T00:31:40.285Z,99344.53
2022-08-24T00:34:28.965Z,99349.81
2022-08-24T00:37:17.130Z,99353.50
2022-08-24T00:40:07.993Z,99355.44
2022-08-24T00:42:56.572Z,99349.66
2022-08-24T00:46:11.261Z,99348.50
2022-08-24T00:49:07.184Z,99343.91
2022-08-24T00:52:09.757Z,99347.84
2022-08-24T00:55:05.811Z,99344.31
2022-08-24T00:57:58.574Z,99351.34
2022-08-24T01:01:03.810Z,99352.84
2022-08-24T01:03:57.245Z,99359.50
2022-08-24T01:06:45.486Z,99357.66
2022-08-24T01:09:33.429Z,99353.50
2022-08-24T01:12:22.490Z,99347.47
2022-08-24T01:15:11.542Z,99348.69
2022-08-24T01:18:00.714Z,99358.19
2022-08-24T01:21:28.470Z,99362.38
2022-08-24T01:24:16.702Z,99365.91
2022-08-24T01:27:05.086Z,99375.75
2022-08-24T01:29:56.130Z,99362.69
2022-08-24T01:32:54.141Z,99370.06
2022-08-24T01:35:42.464Z,99372.75
2022-08-24T01:38:30.649Z,99362.81
2022-08-24T01:41:18.763Z,99378.84
2022-08-24T01:44:06.719Z,99361.00
2022-08-24T01:46:56.053Z,99368.66
2022-08-24T01:49:46.425Z,99372.66
2022-08-24T01:53:03.514Z,99371.81
2022-08-24T01:55:43.840Z,99378.09
2022-08-24T01:58:32.221Z,99374.59
2022-08-24T02:01:20.391Z,99384.41
2022-08-24T02:04:09.674Z,99386.69
2022-08-24T02:06:57.679Z,99387.31
2022-08-24T02:09:46.500Z,99384.56
2022-08-24T02:12:38.323Z,99375.94
2022-08-24T02:15:39.406Z,99387.12
2022-08-24T02:18:27.553Z,99381.56
2022-08-24T02:21:16.170Z,99381.75
2022-08-24T02:24:04.442Z,99379.31
2022-08-24T02:26:52.583Z,99381.72
2022-08-24T02:29:40.489Z,99390.22
2022-08-24T02:32:30.910Z,99386.28
2022-08-24T02:35:21.735Z,99386.19
2022-08-24T02:38:11.057Z,99388.22
2022-08-24T02:41:00.634Z,99391.53
2022-08-24T02:43:48.804Z,99392.19
2022-08-24T02:46:39.251Z,99385.63
2022-08-24T02:49:27.846Z,99390.63
2022-08-24T02:52:15.696Z,99391.16
2022-08-24T02:55:04.332Z,99394.16
2022-08-24T02:57:52.192Z,99390.94
2022-08-24T03:00:41.511Z,99394.16
2022-08-24T03:03:32.667Z,99395.19
2022-08-24T03:06:21.201Z,99397.47
2022-08-24T03:09:12.113Z,99390.59
2022-08-24T03:12:00.354Z,99395.88
2022-08-24T03:14:48.212Z,99400.38
2022-08-24T03:17:36.750Z,99407.91
2022-08-24T03:20:27.643Z,99407.72
2022-08-24T03:23:17.933Z,99405.47
2022-08-24T03:26:05.890Z,99406.78
2022-08-24T03:28:54.342Z,99400.91
2022-08-24T03:31:49.160Z,99400.91
2022-08-24T03:34:38.088Z,99403.97
2022-08-24T03:37:28.176Z,99396.81
2022-08-24T03:40:23.131Z,99392.72
2022-08-24T03:43:13.131Z,99396.22
2022-08-24T03:46:01.319Z,99398.00
2022-08-24T03:48:49.959Z,99391.13
2022-08-24T03:51:38.514Z,99402.06
2022-08-24T03:54:28.181Z,99398.16
2022-08-24T03:57:17.464Z,99400.38
2022-08-24T04:00:07.958Z,99396.28
2022-08-24T04:03:04.328Z,99397.44
2022-08-24T04:05:54.999Z,99396.38
2022-08-24T04:08:43.051Z,99400.78
2022-08-24T04:11:31.171Z,99397.72
2022-08-24T04:14:23.769Z,99400.69
2022-08-24T04:17:16.365Z,99392.63
2022-08-24T04:20:05.084Z,99392.16
2022-08-24T04:22:53.972Z,99387.59
2022-08-24T04:25:47.407Z,99389.88
2022-08-24T04:28:35.589Z,99393.22
2022-08-24T04:31:23.892Z,99387.41
2022-08-24T04:34:17.407Z,99388.34
2022-08-24T04:37:09.646Z,99387.03
2022-08-24T04:40:03.517Z,99387.41
2022-08-24T04:42:52.487Z,99396.22
2022-08-24T04:45:42.798Z,99403.31
2022-08-24T04:48:30.667Z,99398.22
2022-08-24T04:51:20.167Z,99413.75
2022-08-24T04:54:08.429Z,99403.03
2022-08-24T04:56:56.524Z,99402.88
2022-08-24T04:59:44.289Z,99405.09
2022-08-24T05:02:36.620Z,99407.47
2022-08-24T05:05:27.722Z,99411.44
2022-08-24T05:08:20.096Z,99405.03
2022-08-24T05:11:08.118Z,99404.97
2022-08-24T05:13:57.359Z,99405.81
2022-08-24T05:16:45.641Z,99399.22
2022-08-24T05:19:43.686Z,99399.19
2022-08-24T05:22:31.835Z,99399.19
2022-08-24T05:25:20.569Z,99407.19
2022-08-24T05:28:08.340Z,99404.56
2022-08-24T05:30:56.337Z,99402.75
2022-08-24T05:33:44.721Z,99396.59
2022-08-24T05:36:35.326Z,99406.13
2022-08-24T05:39:23.527Z,99410.16
2022-08-24T05:42:12.115Z,99410.78
2022-08-24T05:45:03.090Z,99407.59
2022-08-24T05:47:51.157Z,99417.31
2022-08-24T05:50:40.632Z,99415.09
2022-08-24T05:53:28.949Z,99414.44
2022-08-24T05:56:20.712Z,99413.97
2022-08-24T05:59:08.803Z,99417.13
2022-08-24T06:01:57.032Z,99414.34
2022-08-24T06:04:45.611Z,99408.56
2022-08-24T06:07:33.264Z,99414.09
2022-08-24T06:10:36.245Z,99422.19
2022-08-24T06:13:24.823Z,99423.31
2022-08-24T06:16:47.833Z,99416.78
2022-08-24T06:19:21.887Z,99422.81
2022-08-24T06:22:10.333Z,99431.38
2022-08-24T06:24:59.056Z,99426.66
2022-08-24T06:27:47.623Z,99425.38
2022-08-24T06:30:35.379Z,99428.66
2022-08-24T06:33:24.842Z,99429.59
2022-08-24T06:50:39.911Z,99430.00
2022-08-24T06:53:28.041Z,99430.00
2022-08-24T06:56:16.545Z,99448.75
2022-08-24T07:06:14.012Z,99452.66
2022-08-24T07:09:02.505Z,99452.66
2022-08-24T07:11:52.071Z,99459.34
2022-08-24T07:14:39.948Z,99470.75
2022-08-24T07:17:27.578Z,99468.22
2022-08-24T07:20:15.704Z,99471.06
2022-08-24T07:37:52.797Z,99482.91
2022-08-24T07:41:05.450Z,99482.91
2022-08-24T07:43:55.395Z,99482.13
2022-08-24T07:46:43.674Z,99487.69
2022-08-24T07:49:37.193Z,99494.59
2022-08-24T07:52:25.805Z,99491.13
2022-08-24T07:55:14.203Z,99487.22
2022-08-24T07:58:02.270Z,99493.19
2022-08-24T08:00:50.942Z,99494.34
2022-08-24T08:03:38.932Z,99498.28
2022-08-24T08:06:26.897Z,99497.09
2022-08-24T08:09:15.768Z,99494.38
2022-08-24T08:12:04.178Z,99507.38
2022-08-24T08:14:55.837Z,99505.19
2022-08-24T08:17:43.735Z,99506.13
2022-08-24T08:20:31.690Z,99504.09
2022-08-24T08:23:20.328Z,99506.16
2022-08-24T08:26:14.546Z,99510.22
2022-08-24T08:29:02.980Z,99504.28
2022-08-24T08:31:51.544Z,99505.00
2022-08-24T08:34:39.274Z,99500.47
2022-08-24T08:37:27.854Z,99502.66
2022-08-24T08:40:28.678Z,99511.09
2022-08-24T08:43:33.829Z,99519.63
2022-08-24T08:46:33.946Z,99516.81
2022-08-24T08:49:28.001Z,99511.44
2022-08-24T08:52:41.327Z,99524.75
2022-08-24T08:55:57.962Z,99524.78
2022-08-24T08:58:57.675Z,99528.94
2022-08-24T09:01:55.654Z,99523.00
2022-08-24T09:04:55.372Z,99521.87
2022-08-24T09:08:06.952Z,99518.16
2022-08-24T09:11:22.000Z,99518.47
2022-08-24T09:14:28.202Z,99523.06
2022-08-24T09:17:34.035Z,99520.53
2022-08-24T09:20:42.658Z,99515.25
2022-08-24T09:23:30.457Z,99525.94
2022-08-24T09:26:28.686Z,99521.91
2022-08-24T09:29:24.045Z,99522.56
2022-08-24T09:32:39.217Z,99520.22
2022-08-24T09:35:51.371Z,99522.75
2022-08-24T09:39:05.628Z,99523.81
2022-08-24T09:42:25.192Z,99515.47
2022-08-24T09:45:41.619Z,99517.91
2022-08-24T09:48:43.868Z,99518.94
2022-08-24T09:52:16.239Z,99515.84
2022-08-24T09:55:31.736Z,99511.84
2022-08-24T09:58:31.516Z,99513.16
2022-08-24T10:01:51.020Z,99512.31
2022-08-24T10:05:05.383Z,99516.25
2022-08-24T10:08:27.311Z,99510.50
2022-08-24T10:11:30.708Z,99506.81
2022-08-24T10:14:43.597Z,99515.16
2022-08-24T10:18:09.532Z,99509.91
2022-08-24T10:21:03.516Z,99506.50
2022-08-24T10:24:21.466Z,99512.63
2022-08-24T10:57:12.236Z,99513.84
2022-08-24T10:59:59.986Z,99508.56
2022-08-24T11:02:48.534Z,99506.63
2022-08-24T11:05:47.778Z,99513.53
2022-08-24T11:08:35.701Z,99511.44
2022-08-24T11:11:35.998Z,99518.53
2022-08-24T11:14:29.711Z,99520.72
2022-08-24T11:17:19.994Z,99514.56
2022-08-24T11:20:34.656Z,99521.69
2022-08-24T11:23:31.766Z,99513.50
2022-08-24T11:26:21.796Z,99528.72
2022-08-24T11:29:09.408Z,99525.59
2022-08-24T11:31:58.177Z,99526.97
2022-08-24T11:34:46.644Z,99527.94
2022-08-24T11:37:37.036Z,99530.25
2022-08-24T11:40:28.762Z,99530.38
2022-08-24T11:43:22.224Z,99531.50
2022-08-24T11:46:28.048Z,99521.37
2022-08-24T11:49:34.778Z,99524.72
2022-08-24T11:52:37.331Z,99526.91
2022-08-24T11:55:38.479Z,99517.62
2022-08-24T11:58:56.311Z,99512.91
2022-08-24T12:01:57.989Z,99515.34
2022-08-24T12:05:04.332Z,99518.19
2022-08-24T12:08:13.794Z,99518.56
2022-08-24T12:11:17.284Z,99528.59
2022-08-24T12:14:19.966Z,99517.41
2022-08-24T12:17:27.050Z,99515.69
2022-08-24T12:20:30.268Z,99511.09
2022-08-24T12:23:21.152Z,99523.50
2022-08-24T12:26:12.395Z,99510.03
2022-08-24T12:29:10.128Z,99519.56
2022-08-24T12:32:03.976Z,99517.75
2022-08-24T12:34:59.070Z,99522.50
2022-08-24T12:37:50.747Z,99520.78
2022-08-24T12:41:18.934Z,99521.66
2022-08-24T12:44:13.201Z,99525.06
2022-08-24T12:47:01.108Z,99518.97
2022-08-24T12:49:55.014Z,99520.50
2022-08-24T12:52:51.856Z,99513.31
2022-08-24T12:56:05.290Z,99513.25
2022-08-24T12:59:19.601Z,99518.25
2022-08-24T13:02:04.201Z,99508.00
2022-08-24T13:04:55.486Z,99508.88
2022-08-24T13:07:22.746Z,99508.69
2022-08-24T13:09:53.108Z,99501.38
2022-08-24T13:12:38.792Z,99503.72
2022-08-24T13:15:28.317Z,99508.88
2022-08-24T13:18:09.566Z,99509.12
2022-08-24T13:20:43.832Z,99509.84
2022-08-24T13:23:11.693Z,99511.44
2022-08-24T13:25:48.622Z,99515.09
2022-08-24T13:28:22.097Z,99507.16
2022-08-24T13:30:59.508Z,99511.66
2022-08-24T13:33:38.989Z,99512.81
2022-08-24T13:36:29.631Z,99510.41
2022-08-24T13:39:06.276Z,99512.06
2022-08-24T13:42:12.000Z,99505.75
2022-08-24T13:45:03.979Z,99507.38
2022-08-24T13:47:45.543Z,99498.34
2022-08-24T13:50:32.425Z,99499.81
2022-08-24T13:53:37.911Z,99500.91
2022-08-24T13:56:14.278Z,99501.25
2022-08-24T13:58:45.017Z,99501.56
2022-08-24T14:01:50.352Z,99507.13
2022-08-24T14:04:26.764Z,99500.63
2022-08-24T14:07:19.160Z,99504.44
2022-08-24T14:09:49.614Z,99493.94
2022-08-24T14:12:19.708Z,99492.56
2022-08-24T14:14:56.170Z,99494.97
2022-08-24T14:17:46.383Z,99498.06
2022-08-24T14:20:22.489Z,99500.75
2022-08-24T14:23:13.645Z,99491.59
2022-08-24T14:25:41.330Z,99493.19
2022-08-24T14:28:36.247Z,99491.72
2022-08-24T14:31:24.493Z,99498.13
2022-08-24T14:33:55.791Z,99495.16
2022-08-24T14:36:57.451Z,99491.63
2022-08-24T14:39:47.102Z,99491.22
2022-08-24T14:42:18.205Z,99492.75
2022-08-24T14:45:03.981Z,99498.06
2022-08-24T14:47:38.062Z,99490.44
2022-08-24T14:50:12.675Z,99501.84
2022-08-24T14:53:04.008Z,99496.78
2022-08-24T14:55:57.154Z,99491.06
2022-08-24T14:58:46.160Z,99487.38
2022-08-24T15:01:19.525Z,99489.06
2022-08-24T15:03:59.192Z,99492.66
2022-08-24T15:06:49.702Z,99492.09
2022-08-24T15:09:28.316Z,99488.94
2022-08-24T15:12:37.342Z,99485.09
2022-08-24T15:15:28.811Z,99499.78
2022-08-24T15:18:01.541Z,99493.41
2022-08-24T15:21:08.036Z,99507.69
2022-08-24T15:23:56.641Z,99502.25
2022-08-24T15:26:41.953Z,99513.06
2022-08-24T15:29:14.872Z,99502.62
2022-08-24T15:31:43.708Z,99512.63
2022-08-24T15:34:11.077Z,99514.66
2022-08-24T15:36:40.903Z,99519.25
2022-08-24T15:39:08.823Z,99513.97
2022-08-24T15:41:41.100Z,99519.47
2022-08-24T15:44:21.182Z,99511.41
2022-08-24T15:47:01.761Z,99506.88
2022-08-24T15:49:34.826Z,99494.75
2022-08-24T15:52:09.254Z,99502.56
2022-08-24T15:54:43.660Z,99506.88
2022-08-24T15:57:27.014Z,99498.94
2022-08-24T16:00:05.592Z,99503.28
2022-08-24T16:02:36.547Z,99499.34
2022-08-24T16:05:36.737Z,99488.31
2022-08-24T16:08:04.517Z,99494.94
2022-08-24T16:10:45.823Z,99494.22
2022-08-24T16:13:22.260Z,99502.09
2022-08-24T16:16:02.551Z,99491.53
2022-08-24T16:18:50.219Z,99503.69
2022-08-24T16:21:29.892Z,99497.03
2022-08-24T16:24:12.239Z,99499.00
2022-08-24T16:26:46.381Z,99495.88
2022-08-24T16:29:36.559Z,99495.09
2022-08-24T16:32:30.227Z,99491.53
2022-08-24T16:35:19.874Z,99496.28
2022-08-24T16:38:06.276Z,99488.84
2022-08-24T16:40:54.005Z,99479.44
2022-08-24T16:43:42.118Z,99490.81
2022-08-24T16:46:11.452Z,99488.84
2022-08-24T16:48:40.265Z,99483.72
2022-08-24T16:51:07.797Z,99485.72
2022-08-24T16:53:35.251Z,99484.53
2022-08-24T16:56:03.434Z,99492.75
2022-08-24T16:58:33.546Z,99490.41
2022-08-24T17:01:01.803Z,99497.91
2022-08-24T17:03:30.069Z,99506.50
2022-08-24T17:05:58.083Z,99498.28
2022-08-24T17:08:27.061Z,99504.56
2022-08-24T17:10:54.829Z,99506.13
2022-08-24T17:13:46.267Z,99505.72
2022-08-24T17:16:11.895Z,99517.88
2022-08-24T17:18:39.383Z,99517.81
2022-08-24T17:21:06.944Z,99526.44
2022-08-24T17:23:35.558Z,99523.72
2022-08-24T17:26:07.591Z,99519.47
2022-08-24T17:28:39.439Z,99521.03
2022-08-24T17:31:07.183Z,99522.16
2022-08-24T17:33:35.591Z,99530.38
2022-08-24T17:36:05.747Z,99529.97
2022-08-24T17:38:38.776Z,99533.47
2022-08-24T17:41:06.750Z,99534.69
2022-08-24T17:43:37.964Z,99538.13
2022-08-24T17:46:06.538Z,99539.66
2022-08-24T17:48:34.135Z,99545.53
2022-08-24T17:51:01.449Z,99545.91
2022-08-24T17:53:29.070Z,99547.09
2022-08-24T17:55:56.373Z,99552.53
2022-08-24T17:58:23.697Z,99552.97
2022-08-24T18:00:51.606Z,99543.09
2022-08-24T18:03:19.363Z,99551.72
2022-08-24T18:05:46.665Z,99547.00
2022-08-24T18:08:14.803Z,99554.38
2022-08-24T18:10:42.432Z,99548.00
2022-08-24T18:13:09.937Z,99556.63
2022-08-24T18:15:37.273Z,99555.00
2022-08-24T18:18:08.797Z,99555.03
2022-08-24T18:20:39.344Z,99559.75
2022-08-24T18:23:11.325Z,99559.78
2022-08-24T18:25:47.089Z,99568.72
2022-08-24T18:28:16.057Z,99565.47
2022-08-24T18:30:43.949Z,99565.06
2022-08-24T18:33:11.291Z,99567.91
2022-08-24T18:35:39.248Z,99565.87
2022-08-24T18:38:06.549Z,99565.03
2022-08-24T18:40:34.400Z,99568.50
2022-08-24T18:43:03.884Z,99567.81
2022-08-24T18:45:33.030Z,99574.03
2022-08-24T18:48:00.829Z,99571.72
2022-08-24T18:50:28.465Z,99566.94
2022-08-24T18:52:57.689Z,99565.66
2022-08-24T18:55:26.141Z,99565.16
2022-08-24T18:57:55.036Z,99565.56
2022-08-24T19:00:22.621Z,99562.50
2022-08-24T19:02:49.941Z,99566.78
2022-08-24T19:05:23.311Z,99569.19
2022-08-24T19:07:52.208Z,99578.06
2022-08-24T19:10:22.570Z,99574.19
2022-08-24T19:12:59.891Z,99577.38
2022-08-24T19:15:35.734Z,99584.38
2022-08-24T19:18:11.573Z,99583.84
2022-08-24T19:20:46.014Z,99586.16
2022-08-24T19:23:30.913Z,99584.53
2022-08-24T19:25:59.160Z,99581.87
2022-08-24T19:28:27.080Z,99586.03
2022-08-24T19:30:56.340Z,99587.16
2022-08-24T19:33:27.113Z,99591.72
2022-08-24T19:35:54.554Z,99586.88
2022-08-24T19:38:25.429Z,99581.59
2022-08-24T19:40:58.309Z,99584.00
2022-08-24T19:43:27.028Z,99582.81
2022-08-24T19:45:56.177Z,99582.37
2022-08-24T19:48:23.482Z,99585.12
2022-08-24T19:50:52.914Z,99586.47
2022-08-24T19:53:20.758Z,99599.03
2022-08-24T19:55:50.912Z,99592.22
2022-08-24T19:58:37.823Z,99594.28
2022-08-24T20:01:10.775Z,99594.72
2022-08-24T20:03:38.386Z,99584.69
2022-08-24T20:06:05.918Z,99590.94
2022-08-24T20:08:33.196Z,99593.22
2022-08-24T20:11:00.800Z,99595.56
2022-08-24T20:13:28.187Z,99600.13
2022-08-24T20:15:57.556Z,99603.75
2022-08-24T20:18:30.725Z,99598.28
2022-08-24T20:20:58.792Z,99603.75
2022-08-24T20:23:27.269Z,99599.78
2022-08-24T20:25:55.655Z,99602.56
2022-08-24T20:28:32.674Z,99593.44
2022-08-24T20:31:02.766Z,99603.19
2022-08-24T20:33:30.130Z,99593.81
2022-08-24T20:35:57.667Z,99590.97
2022-08-24T20:38:31.666Z,99601.25
2022-08-24T20:41:00.624Z,99596.22
2022-08-24T20:43:28.700Z,99594.56
2022-08-24T20:45:56.371Z,99601.88
2022-08-24T20:48:29.639Z,99597.06
2022-08-24T20:51:00.726Z,99597.13
2022-08-24T20:53:28.537Z,99601.31
2022-08-24T20:55:56.770Z,99606.72
2022-08-24T20:58:24.441Z,99610.66
2022-08-24T21:00:51.932Z,99615.38
2022-08-24T21:03:19.397Z,99606.75
2022-08-24T21:05:48.541Z,99612.34
2022-08-24T21:08:15.923Z,99615.44
2022-08-24T21:10:43.256Z,99618.59
2022-08-24T21:13:11.277Z,99622.44
2022-08-24T21:15:38.858Z,99623.97
2022-08-24T21:18:06.250Z,99626.63
2022-08-24T21:20:33.834Z,99624.69
2022-08-24T21:23:01.195Z,99628.94
2022-08-24T21:25:28.526Z,99624.16
2022-08-24T21:27:59.188Z,99620.53
2022-08-24T21:30:26.805Z,99623.56
2022-08-24T21:32:54.115Z,99622.03
2022-08-24T21:35:21.726Z,99627.03
2022-08-24T21:37:49.546Z,99631.28
2022-08-24T21:40:17.379Z,99629.56
2022-08-24T21:42:45.024Z,99631.88
2022-08-24T21:45:13.488Z,99629.56
2022-08-24T21:47:40.787Z,99629.13
2022-08-24T21:50:09.291Z,99624.44
2022-08-24T21:52:36.862Z,99621.91
2022-08-24T21:55:05.232Z,99619.37
2022-08-24T21:57:32.936Z,99618.91
2022-08-24T22:00:00.730Z,99619.16
2022-08-24T22:02:28.576Z,99619.16
2022-08-24T22:04:57.369Z,99621.44
2022-08-24T22:07:24.942Z,99616.88
2022-08-24T22:09:52.485Z,99622.75
2022-08-24T22:12:20.241Z,99626.13
2022-08-24T22:14:47.713Z,99621.44
2022-08-24T22:17:15.273Z,99610.81
2022-08-24T22:19:42.936Z,99616.72
2022-08-24T22:22:10.494Z,99621.97
2022-08-24T22:24:38.034Z,99624.50
2022-08-24T22:27:08.396Z,99615.03
2022-08-24T22:29:35.776Z,99612.50
2022-08-24T22:32:03.577Z,99605.72
2022-08-24T22:34:31.615Z,99608.16
2022-08-24T22:36:59.074Z,99610.34
2022-08-24T22:39:26.455Z,99606.03
2022-08-24T22:41:54.049Z,99601.78
2022-08-24T22:44:21.724Z,99608.31
2022-08-24T22:46:51.864Z,99605.59
2022-08-24T22:49:20.478Z,99601.41
2022-08-24T22:51:47.926Z,99602.63
2022-08-24T22:54:15.964Z,99605.37
2022-08-24T22:56:49.807Z,99590.91
2022-08-24T22:59:32.119Z,99586.03
2022-08-24T23:02:06.135Z,99588.78
2022-08-24T23:04:35.404Z,99581.91
2022-08-24T23:07:06.213Z,99586.53
2022-08-24T23:09:44.252Z,99581.44
2022-08-24T23:12:17.923Z,99582.75
2022-08-24T23:14:45.706Z,99576.69
2022-08-24T23:17:13.418Z,99570.97
2022-08-24T23:19:40.759Z,99568.50
2022-08-24T23:22:10.774Z,99569.53
2022-08-24T23:24:39.573Z,99570.59
2022-08-24T23:27:10.337Z,99565.19
2022-08-24T23:29:38.781Z,99553.28
2022-08-24T23:32:07.119Z,99561.84
2022-08-24T23:34:35.508Z,99556.84
2022-08-24T23:37:03.785Z,99557.56
2022-08-24T23:39:31.552Z,99557.56
2022-08-24T23:41:58.924Z,99553.13
2022-08-24T23:44:28.345Z,99548.19
2022-08-24T23:46:56.634Z,99547.28
2022-08-24T23:49:24.985Z,99539.50
2022-08-24T23:51:53.209Z,99544.56
2022-08-24T23:54:21.614Z,99534.28
2022-08-24T23:56:49.894Z,99537.44
2022-08-24T23:59:21.334Z,99535.94
